KRSW

Southwest Florida International Airport

Fort Myers, Florida, USA
METAR KRSW 171753Z 07010KT 10SM BKN036 BKN049 BKN070 32/23 A3007 RMK AO2 SLP179 T03170233 10322 20244 58021
Observed Flight Rules
Oct-17 @ 17:53 UTC (44 minutes ago) Visual Flight Rules
Wind Visibility Clouds
70° at 10 knots 10 miles
  • Broken at 3,600' AGL
  • Broken at 4,900' AGL
  • Broken at 7,000' AGL
Temperatures Readings
Current 32°C / 90°F
Dewpoint 23°C / 73°F
Humidity 59%
Altimeter 30.07" Hg
Pressure 1017.9 hPa
Elevation 10
METAR KRSW 171753Z 07010KT 10SM BKN036 BKN049 BKN070 32/23 A3007 RMK AO2 SLP179 T03170233 10322 20244 58021
Observed Flight Rules
Oct-17 @ 17:53 UTC
(44 minutes ago)
VFR
Wind Visibility
70° at 10 knots 10 miles
Clouds
  • Broken at 3,600' AGL
  • Broken at 4,900' AGL
  • Broken at 7,000' AGL
Temperature Dewpoint
32°C / 90°F 23°C / 73°F
Humidity Altimeter Pressure
59% 30.07" Hg 1017.9 hPa